createdAt,value
2023-10-08T00:00:47.902Z,8.68
2023-10-08T00:10:52.433Z,6.80
2023-10-08T00:20:59.744Z,6.38
2023-10-08T00:31:12.371Z,9.48
2023-10-08T00:41:16.684Z,7.15
2023-10-08T00:51:32.309Z,5.78
2023-10-08T01:01:37.158Z,9.98
2023-10-08T01:11:46.803Z,6.75
2023-10-08T01:21:51.727Z,6.35
2023-10-08T01:31:58.059Z,7.63
2023-10-08T01:42:00.920Z,7.57
2023-10-08T01:52:08.638Z,8.20
2023-10-08T02:02:12.045Z,7.32
2023-10-08T02:12:17.644Z,7.68
2023-10-08T02:22:20.717Z,10.25
2023-10-08T02:32:25.064Z,7.75
2023-10-08T02:42:28.023Z,10.95
2023-10-08T02:52:32.205Z,12.27
2023-10-08T03:02:40.842Z,6.53
2023-10-08T03:12:47.492Z,5.18
2023-10-08T03:22:50.904Z,7.63
2023-10-08T03:32:57.176Z,5.93
2023-10-08T03:43:03.595Z,8.45
2023-10-08T03:53:12.633Z,5.53
2023-10-08T04:03:24.735Z,7.00
2023-10-08T04:13:29.510Z,7.60
2023-10-08T04:23:32.638Z,7.85
2023-10-08T04:33:37.116Z,5.28
2023-10-08T04:43:40.105Z,8.30
2023-10-08T04:53:45.410Z,6.53
2023-10-08T05:04:25.668Z,8.25
2023-10-08T05:14:36.089Z,6.68
2023-10-08T05:24:41.820Z,10.25
2023-10-08T05:34:52.151Z,8.48
2023-10-08T05:45:15.261Z,12.02
2023-10-08T05:55:26.652Z,5.05
2023-10-08T06:05:34.253Z,7.50
2023-10-08T06:15:45.626Z,6.38
2023-10-08T06:25:55.216Z,6.05
2023-10-08T06:36:04.124Z,7.65
2023-10-08T06:46:09.035Z,8.40
2023-10-08T06:56:13.732Z,7.68
2023-10-08T07:06:26.638Z,4.88
2023-10-08T07:16:31.389Z,5.40
2023-10-08T07:26:38.522Z,9.65
2023-10-08T07:36:44.167Z,7.43
2023-10-08T07:46:46.987Z,8.80
2023-10-08T07:56:52.786Z,6.78
2023-10-08T08:06:55.691Z,8.00
2023-10-08T08:17:14.258Z,10.02
2023-10-08T08:27:26.607Z,6.40
2023-10-08T08:37:32.159Z,5.68
2023-10-08T08:47:35.420Z,9.23
2023-10-08T08:57:40.903Z,9.18
2023-10-08T09:07:55.815Z,6.55
2023-10-08T09:18:02.249Z,9.20
2023-10-08T09:28:08.551Z,9.95
2023-10-08T09:38:13.402Z,9.23
2023-10-08T09:48:20.811Z,9.60
2023-10-08T09:58:27.567Z,9.80
2023-10-08T10:08:36.884Z,8.00
2023-10-08T10:18:41.878Z,17.23
2023-10-08T10:28:45.750Z,20.10
2023-10-08T10:38:51.266Z,19.85
2023-10-08T10:49:08.393Z,19.10
2023-10-08T10:59:20.901Z,21.23
2023-10-08T11:09:37.100Z,16.77
2023-10-08T11:19:43.724Z,17.75
2023-10-08T11:29:49.124Z,17.20
2023-10-08T11:39:54.523Z,17.73
2023-10-08T11:50:11.163Z,15.77
2023-10-08T12:10:26.851Z,19.02
2023-10-08T12:20:35.500Z,17.83
2023-10-08T12:30:42.616Z,18.40
2023-10-08T12:40:53.864Z,20.83
2023-10-08T12:50:58.707Z,21.05
2023-10-08T13:01:05.324Z,18.02
2023-10-08T13:11:09.074Z,19.23
2023-10-08T13:21:13.947Z,16.65
2023-10-08T13:31:18.810Z,16.52
2023-10-08T13:41:23.546Z,18.70
2023-10-08T13:51:26.819Z,19.60
2023-10-08T14:01:34.868Z,21.92
2023-10-08T14:11:38.630Z,23.35
2023-10-08T14:21:50.698Z,19.88
2023-10-08T14:31:57.276Z,22.63
2023-10-08T14:42:19.284Z,22.85
2023-10-08T14:52:22.710Z,23.35
2023-10-08T15:02:30.716Z,21.85
2023-10-08T15:12:36.053Z,20.95
2023-10-08T15:22:40.485Z,20.95
2023-10-08T15:32:48.042Z,17.95
2023-10-08T15:42:55.083Z,23.55
2023-10-08T15:52:58.461Z,18.20
2023-10-08T16:03:02.971Z,16.60
2023-10-08T16:13:06.705Z,20.27
2023-10-08T16:23:13.575Z,21.05
2023-10-08T16:33:17.187Z,17.92
2023-10-08T16:43:21.754Z,21.48
2023-10-08T16:53:26.440Z,24.65
2023-10-08T17:03:31.544Z,14.95
2023-10-08T17:13:34.780Z,15.98
2023-10-08T17:23:39.704Z,17.67
2023-10-08T17:33:45.477Z,13.60
2023-10-08T17:43:50.162Z,16.17
2023-10-08T17:53:53.205Z,19.23
2023-10-08T18:03:58.066Z,14.05
2023-10-08T18:14:02.112Z,20.23
2023-10-08T18:24:07.472Z,16.55
2023-10-08T18:34:10.633Z,20.88
2023-10-08T18:44:18.033Z,15.25
2023-10-08T18:54:22.195Z,14.30
2023-10-08T19:04:28.200Z,16.40
2023-10-08T19:14:31.469Z,13.27
2023-10-08T19:24:35.762Z,13.55
2023-10-08T19:34:40.238Z,13.82
2023-10-08T19:44:45.024Z,16.92
2023-10-08T19:54:48.111Z,16.65
2023-10-08T20:04:52.479Z,19.13
2023-10-08T20:14:55.547Z,15.02
2023-10-08T20:24:59.991Z,13.02
2023-10-08T20:35:04.852Z,15.48
2023-10-08T20:45:10.350Z,15.77
2023-10-08T20:55:13.853Z,15.43
2023-10-08T21:05:19.182Z,17.13
2023-10-08T21:15:24.111Z,16.10
2023-10-08T21:25:29.198Z,15.13
2023-10-08T21:35:33.055Z,13.75
2023-10-08T21:45:38.357Z,13.98
2023-10-08T21:55:42.190Z,13.68
2023-10-08T22:05:47.168Z,13.55
2023-10-08T22:15:50.924Z,11.60
2023-10-08T22:25:56.606Z,16.88
2023-10-08T22:36:04.938Z,11.73
2023-10-08T22:46:10.330Z,11.10
2023-10-08T22:56:13.603Z,11.13
2023-10-08T23:06:18.507Z,11.07
2023-10-08T23:16:21.605Z,10.88
2023-10-08T23:26:25.951Z,11.70
2023-10-08T23:36:35.005Z,14.63
2023-10-08T23:46:44.478Z,10.65
2023-10-08T23:56:50.512Z,12.65
